sensor_id;sensor_type;location;lat;lon;timestamp;P1;P2;P0
72509;PMS5003;60532;56.114;40.350;2023-07-22T00:02:00;4.25;4.25;2.00
72509;PMS5003;60532;56.114;40.350;2023-07-22T00:04:00;4.00;4.00;2.00
72509;PMS5003;60532;56.114;40.350;2023-07-22T00:06:04;4.75;3.75;2.00
72509;PMS5003;60532;56.114;40.350;2023-07-22T00:08:06;3.20;3.20;2.00
72509;PMS5003;60532;56.114;40.350;2023-07-22T00:10:06;3.50;3.50;2.00
72509;PMS5003;60532;56.114;40.350;2023-07-22T00:12:08;5.40;4.00;2.20
72509;PMS5003;60532;56.114;40.350;2023-07-22T00:14:08;4.40;3.20;2.00
72509;PMS5003;60532;56.114;40.350;2023-07-22T00:16:09;5.60;4.20;2.60
72509;PMS5003;60532;56.114;40.350;2023-07-22T00:18:11;4.00;4.00;2.40
72509;PMS5003;60532;56.114;40.350;2023-07-22T00:20:11;4.00;4.00;2.25
72509;PMS5003;60532;56.114;40.350;2023-07-22T00:22:12;7.75;4.50;3.00
72509;PMS5003;60532;56.114;40.350;2023-07-22T00:24:12;7.50;6.00;3.00
72509;PMS5003;60532;56.114;40.350;2023-07-22T00:26:13;3.00;3.00;2.00
72509;PMS5003;60532;56.114;40.350;2023-07-22T00:28:13;7.75;5.75;3.00
72509;PMS5003;60532;56.114;40.350;2023-07-22T00:30:14;4.00;4.00;2.25
72509;PMS5003;60532;56.114;40.350;2023-07-22T00:32:14;5.00;5.00;2.75
72509;PMS5003;60532;56.114;40.350;2023-07-22T00:34:15;4.00;4.00;2.75
72509;PMS5003;60532;56.114;40.350;2023-07-22T00:36:15;5.00;5.00;3.00
72509;PMS5003;60532;56.114;40.350;2023-07-22T00:38:16;5.25;4.00;2.00
72509;PMS5003;60532;56.114;40.350;2023-07-22T00:40:17;4.20;2.80;2.00
72509;PMS5003;60532;56.114;40.350;2023-07-22T00:42:18;3.80;3.80;3.00
72509;PMS5003;60532;56.114;40.350;2023-07-22T00:44:19;3.40;2.60;2.00
72509;PMS5003;60532;56.114;40.350;2023-07-22T00:46:19;4.00;4.00;2.00
72509;PMS5003;60532;56.114;40.350;2023-07-22T00:48:20;6.25;5.50;3.00
72509;PMS5003;60532;56.114;40.350;2023-07-22T00:50:21;5.00;5.00;3.00
72509;PMS5003;60532;56.114;40.350;2023-07-22T00:52:21;6.40;5.60;3.00
72509;PMS5003;60532;56.114;40.350;2023-07-22T00:54:22;4.25;4.25;1.50
72509;PMS5003;60532;56.114;40.350;2023-07-22T00:56:23;6.80;4.00;3.00
72509;PMS5003;60532;56.114;40.350;2023-07-22T00:58:24;6.00;6.00;3.75
72509;PMS5003;60532;56.114;40.350;2023-07-22T01:00:24;3.25;3.25;3.00
72509;PMS5003;60532;56.114;40.350;2023-07-22T01:02:24;5.75;5.75;3.25
72509;PMS5003;60532;56.114;40.350;2023-07-22T01:04:25;4.50;4.00;3.00
72509;PMS5003;60532;56.114;40.350;2023-07-22T01:06:26;8.00;5.25;4.00
72509;PMS5003;60532;56.114;40.350;2023-07-22T01:08:29;5.00;4.20;3.00
72509;PMS5003;60532;56.114;40.350;2023-07-22T01:10:29;4.75;4.00;2.00
72509;PMS5003;60532;56.114;40.350;2023-07-22T01:12:31;5.60;5.60;3.00
72509;PMS5003;60532;56.114;40.350;2023-07-22T01:14:32;2.00;2.00;0.60
72509;PMS5003;60532;56.114;40.350;2023-07-22T01:16:33;7.40;5.40;3.40
72509;PMS5003;60532;56.114;40.350;2023-07-22T01:18:34;5.00;5.00;3.00
72509;PMS5003;60532;56.114;40.350;2023-07-22T01:20:35;4.60;4.60;2.60
72509;PMS5003;60532;56.114;40.350;2023-07-22T01:22:36;4.75;3.75;2.00
72509;PMS5003;60532;56.114;40.350;2023-07-22T01:24:37;4.40;3.80;2.60
72509;PMS5003;60532;56.114;40.350;2023-07-22T01:26:38;5.60;5.60;2.80
72509;PMS5003;60532;56.114;40.350;2023-07-22T01:28:38;6.00;6.00;3.25
72509;PMS5003;60532;56.114;40.350;2023-07-22T01:30:39;4.00;4.00;2.00
72509;PMS5003;60532;56.114;40.350;2023-07-22T01:32:40;5.75;5.00;3.00
72509;PMS5003;60532;56.114;40.350;2023-07-22T01:34:40;6.25;5.00;3.00
72509;PMS5003;60532;56.114;40.350;2023-07-22T01:36:42;2.60;2.60;2.00
72509;PMS5003;60532;56.114;40.350;2023-07-22T01:38:43;6.40;5.00;3.00
72509;PMS5003;60532;56.114;40.350;2023-07-22T01:40:43;2.75;2.75;2.00
72509;PMS5003;60532;56.114;40.350;2023-07-22T01:42:44;3.00;3.00;2.25
72509;PMS5003;60532;56.114;40.350;2023-07-22T01:44:44;4.00;4.00;2.50
72509;PMS5003;60532;56.114;40.350;2023-07-22T01:46:44;5.00;5.00;3.00
72509;PMS5003;60532;56.114;40.350;2023-07-22T01:48:45;4.25;4.25;2.75
72509;PMS5003;60532;56.114;40.350;2023-07-22T01:50:45;4.25;4.00;3.00
72509;PMS5003;60532;56.114;40.350;2023-07-22T01:52:47;2.40;2.40;2.00
72509;PMS5003;60532;56.114;40.350;2023-07-22T01:54:48;4.00;4.00;2.00
72509;PMS5003;60532;56.114;40.350;2023-07-22T01:56:48;3.00;3.00;2.00
72509;PMS5003;60532;56.114;40.350;2023-07-22T01:58:49;4.50;4.50;2.75
72509;PMS5003;60532;56.114;40.350;2023-07-22T02:00:50;4.00;4.00;2.00
72509;PMS5003;60532;56.114;40.350;2023-07-22T02:02:51;4.20;4.20;3.00
72509;PMS5003;60532;56.114;40.350;2023-07-22T02:04:51;4.75;4.75;3.00
72509;PMS5003;60532;56.114;40.350;2023-07-22T02:06:52;5.75;4.00;2.50
72509;PMS5003;60532;56.114;40.350;2023-07-22T02:08:52;3.50;3.50;2.00
72509;PMS5003;60532;56.114;40.350;2023-07-22T02:10:53;8.80;6.00;3.00
72509;PMS5003;60532;56.114;40.350;2023-07-22T02:12:53;5.25;5.25;2.00
72509;PMS5003;60532;56.114;40.350;2023-07-22T02:14:54;5.25;4.00;2.00
72509;PMS5003;60532;56.114;40.350;2023-07-22T02:16:55;5.00;4.80;4.00
72509;PMS5003;60532;56.114;40.350;2023-07-22T02:18:55;4.75;4.25;2.50
72509;PMS5003;60532;56.114;40.350;2023-07-22T02:20:57;4.00;4.00;1.80
72509;PMS5003;60532;56.114;40.350;2023-07-22T02:22:58;4.20;4.20;2.40
72509;PMS5003;60532;56.114;40.350;2023-07-22T02:24:58;4.00;4.00;2.00
72509;PMS5003;60532;56.114;40.350;2023-07-22T02:26:59;4.00;4.00;3.00
72509;PMS5003;60532;56.114;40.350;2023-07-22T02:29:00;3.80;3.80;3.00
72509;PMS5003;60532;56.114;40.350;2023-07-22T02:31:01;5.50;5.50;3.00
72509;PMS5003;60532;56.114;40.350;2023-07-22T02:33:02;5.40;4.80;3.00
72509;PMS5003;60532;56.114;40.350;2023-07-22T02:35:03;4.50;4.50;3.00
72509;PMS5003;60532;56.114;40.350;2023-07-22T02:37:04;4.00;4.00;3.00
72509;PMS5003;60532;56.114;40.350;2023-07-22T02:39:04;5.40;5.40;3.00
72509;PMS5003;60532;56.114;40.350;2023-07-22T02:41:05;6.75;6.75;3.00
72509;PMS5003;60532;56.114;40.350;2023-07-22T02:43:07;6.20;5.40;3.00
72509;PMS5003;60532;56.114;40.350;2023-07-22T02:45:08;2.00;2.00;1.00
72509;PMS5003;60532;56.114;40.350;2023-07-22T02:47:09;4.25;4.25;2.25
72509;PMS5003;60532;56.114;40.350;2023-07-22T02:49:09;4.75;4.75;3.00
72509;PMS5003;60532;56.114;40.350;2023-07-22T02:51:10;6.00;6.00;3.00
72509;PMS5003;60532;56.114;40.350;2023-07-22T02:53:10;3.00;3.00;1.25
72509;PMS5003;60532;56.114;40.350;2023-07-22T02:55:14;4.25;3.00;1.75
72509;PMS5003;60532;56.114;40.350;2023-07-22T02:57:15;8.00;6.60;3.00
72509;PMS5003;60532;56.114;40.350;2023-07-22T02:59:15;6.00;6.00;4.00
72509;PMS5003;60532;56.114;40.350;2023-07-22T03:01:16;5.00;5.00;3.25
72509;PMS5003;60532;56.114;40.350;2023-07-22T03:03:16;4.00;3.50;3.00
72509;PMS5003;60532;56.114;40.350;2023-07-22T03:05:19;5.20;5.20;3.00
72509;PMS5003;60532;56.114;40.350;2023-07-22T03:07:19;4.25;4.25;2.75
72509;PMS5003;60532;56.114;40.350;2023-07-22T03:09:22;4.40;4.40;2.40
72509;PMS5003;60532;56.114;40.350;2023-07-22T03:11:22;7.60;5.00;3.20
72509;PMS5003;60532;56.114;40.350;2023-07-22T03:13:25;4.80;4.40;2.60
72509;PMS5003;60532;56.114;40.350;2023-07-22T03:15:29;5.20;3.60;2.20
72509;PMS5003;60532;56.114;40.350;2023-07-22T03:17:30;6.25;5.00;3.00
72509;PMS5003;60532;56.114;40.350;2023-07-22T03:19:31;4.25;4.25;1.25
72509;PMS5003;60532;56.114;40.350;2023-07-22T03:21:31;3.50;2.75;1.50
72509;PMS5003;60532;56.114;40.350;2023-07-22T03:23:32;3.67;3.67;2.33
72509;PMS5003;60532;56.114;40.350;2023-07-22T03:25:34;5.00;4.00;3.00
72509;PMS5003;60532;56.114;40.350;2023-07-22T03:27:35;7.00;5.25;3.00
72509;PMS5003;60532;56.114;40.350;2023-07-22T03:29:35;3.67;3.67;3.00
72509;PMS5003;60532;56.114;40.350;2023-07-22T03:31:36;4.00;4.00;3.00
72509;PMS5003;60532;56.114;40.350;2023-07-22T03:33:36;4.67;3.67;2.67
72509;PMS5003;60532;56.114;40.350;2023-07-22T03:35:37;6.33;5.67;3.67
72509;PMS5003;60532;56.114;40.350;2023-07-22T03:37:37;5.00;5.00;3.00
72509;PMS5003;60532;56.114;40.350;2023-07-22T03:39:38;6.00;5.00;3.00
72509;PMS5003;60532;56.114;40.350;2023-07-22T03:41:38;4.00;3.67;3.00
72509;PMS5003;60532;56.114;40.350;2023-07-22T03:43:39;3.33;3.33;3.00
72509;PMS5003;60532;56.114;40.350;2023-07-22T03:45:39;5.67;5.67;3.67
72509;PMS5003;60532;56.114;40.350;2023-07-22T03:47:40;5.33;5.00;3.00
72509;PMS5003;60532;56.114;40.350;2023-07-22T03:49:40;4.67;4.00;2.33
72509;PMS5003;60532;56.114;40.350;2023-07-22T03:51:41;1.00;1.00;0.00
72509;PMS5003;60532;56.114;40.350;2023-07-22T03:53:42;7.00;5.00;3.00
72509;PMS5003;60532;56.114;40.350;2023-07-22T03:55:42;4.00;4.00;2.00
72509;PMS5003;60532;56.114;40.350;2023-07-22T03:57:42;4.00;4.00;2.33
72509;PMS5003;60532;56.114;40.350;2023-07-22T03:59:43;4.67;4.00;3.00
72509;PMS5003;60532;56.114;40.350;2023-07-22T04:01:43;4.00;4.00;3.00
72509;PMS5003;60532;56.114;40.350;2023-07-22T04:03:44;4.00;2.67;1.00
72509;PMS5003;60532;56.114;40.350;2023-07-22T04:05:44;2.00;2.00;1.00
72509;PMS5003;60532;56.114;40.350;2023-07-22T04:07:53;6.50;5.25;3.00
72509;PMS5003;60532;56.114;40.350;2023-07-22T04:09:53;4.33;4.00;2.33
72509;PMS5003;60532;56.114;40.350;2023-07-22T04:11:53;5.00;4.00;2.67
72509;PMS5003;60532;56.114;40.350;2023-07-22T04:13:54;4.00;4.00;2.67
72509;PMS5003;60532;56.114;40.350;2023-07-22T04:15:55;4.33;4.33;2.33
72509;PMS5003;60532;56.114;40.350;2023-07-22T04:17:55;4.00;4.00;2.00
72509;PMS5003;60532;56.114;40.350;2023-07-22T04:19:56;5.67;5.67;4.00
72509;PMS5003;60532;56.114;40.350;2023-07-22T04:21:56;4.00;4.00;2.67
72509;PMS5003;60532;56.114;40.350;2023-07-22T04:23:57;4.67;4.67;2.33
72509;PMS5003;60532;56.114;40.350;2023-07-22T04:25:57;4.33;4.00;2.00
72509;PMS5003;60532;56.114;40.350;2023-07-22T04:27:58;4.00;4.00;2.50
72509;PMS5003;60532;56.114;40.350;2023-07-22T04:29:58;6.50;5.00;3.00
72509;PMS5003;60532;56.114;40.350;2023-07-22T04:31:59;5.25;4.50;2.25
72509;PMS5003;60532;56.114;40.350;2023-07-22T04:34:00;5.00;5.00;3.20
72509;PMS5003;60532;56.114;40.350;2023-07-22T04:36:01;3.25;3.00;2.00
72509;PMS5003;60532;56.114;40.350;2023-07-22T04:38:01;5.00;5.00;2.25
72509;PMS5003;60532;56.114;40.350;2023-07-22T04:40:03;4.60;2.80;2.60
72509;PMS5003;60532;56.114;40.350;2023-07-22T04:42:06;5.40;4.60;2.80
72509;PMS5003;60532;56.114;40.350;2023-07-22T04:44:07;4.50;3.25;3.00
72509;PMS5003;60532;56.114;40.350;2023-07-22T04:46:08;3.60;2.20;1.20
72509;PMS5003;60532;56.114;40.350;2023-07-22T04:48:09;5.00;4.00;2.20
72509;PMS5003;60532;56.114;40.350;2023-07-22T04:50:09;5.00;5.00;3.25
72509;PMS5003;60532;56.114;40.350;2023-07-22T04:52:10;4.60;4.60;2.80
72509;PMS5003;60532;56.114;40.350;2023-07-22T04:54:10;4.25;4.25;2.75
72509;PMS5003;60532;56.114;40.350;2023-07-22T04:56:11;4.75;3.75;1.50
72509;PMS5003;60532;56.114;40.350;2023-07-22T04:58:12;4.75;4.75;2.75
72509;PMS5003;60532;56.114;40.350;2023-07-22T05:00:12;5.00;4.00;2.80
72509;PMS5003;60532;56.114;40.350;2023-07-22T05:02:14;5.40;4.00;1.80
72509;PMS5003;60532;56.114;40.350;2023-07-22T05:04:15;6.25;6.25;3.50
72509;PMS5003;60532;56.114;40.350;2023-07-22T05:06:15;6.25;4.75;2.75
72509;PMS5003;60532;56.114;40.350;2023-07-22T05:08:16;3.25;3.25;1.75
72509;PMS5003;60532;56.114;40.350;2023-07-22T05:10:16;6.25;4.25;2.75
72509;PMS5003;60532;56.114;40.350;2023-07-22T05:12:17;6.00;4.25;2.25
72509;PMS5003;60532;56.114;40.350;2023-07-22T05:14:18;4.20;4.20;2.80
72509;PMS5003;60532;56.114;40.350;2023-07-22T05:16:18;3.75;3.75;1.75
72509;PMS5003;60532;56.114;40.350;2023-07-22T05:18:19;3.75;2.50;1.75
72509;PMS5003;60532;56.114;40.350;2023-07-22T05:20:19;5.00;3.75;2.75
72509;PMS5003;60532;56.114;40.350;2023-07-22T05:22:19;3.75;3.75;2.50
72509;PMS5003;60532;56.114;40.350;2023-07-22T05:24:20;7.75;4.75;2.50
72509;PMS5003;60532;56.114;40.350;2023-07-22T05:26:21;5.00;5.00;3.80
72509;PMS5003;60532;56.114;40.350;2023-07-22T05:28:21;8.25;5.75;3.75
72509;PMS5003;60532;56.114;40.350;2023-07-22T05:30:22;5.00;3.75;2.75
72509;PMS5003;60532;56.114;40.350;2023-07-22T05:32:22;5.75;4.00;1.75
72509;PMS5003;60532;56.114;40.350;2023-07-22T05:34:23;5.25;4.75;3.00
72509;PMS5003;60532;56.114;40.350;2023-07-22T05:36:24;8.00;6.25;3.50
72509;PMS5003;60532;56.114;40.350;2023-07-22T05:38:25;4.00;4.00;2.20
72509;PMS5003;60532;56.114;40.350;2023-07-22T05:40:25;4.75;4.75;2.50
72509;PMS5003;60532;56.114;40.350;2023-07-22T05:42:26;4.00;4.00;2.25
72509;PMS5003;60532;56.114;40.350;2023-07-22T05:44:27;7.20;5.60;3.00
72509;PMS5003;60532;56.114;40.350;2023-07-22T05:46:28;4.75;4.75;2.75
72509;PMS5003;60532;56.114;40.350;2023-07-22T05:48:29;5.50;5.25;3.25
72509;PMS5003;60532;56.114;40.350;2023-07-22T05:50:29;1.00;1.00;0.00
72509;PMS5003;60532;56.114;40.350;2023-07-22T05:52:30;6.00;5.00;3.25
72509;PMS5003;60532;56.114;40.350;2023-07-22T05:54:30;7.50;7.00;3.75
72509;PMS5003;60532;56.114;40.350;2023-07-22T05:56:31;6.75;6.25;3.00
72509;PMS5003;60532;56.114;40.350;2023-07-22T05:58:31;5.50;5.50;3.00
72509;PMS5003;60532;56.114;40.350;2023-07-22T06:00:33;6.75;6.25;3.00
72509;PMS5003;60532;56.114;40.350;2023-07-22T06:02:34;6.80;5.80;3.80
72509;PMS5003;60532;56.114;40.350;2023-07-22T06:04:34;7.75;7.75;5.00
72509;PMS5003;60532;56.114;40.350;2023-07-22T06:06:35;6.25;6.25;3.00
72509;PMS5003;60532;56.114;40.350;2023-07-22T06:08:35;6.25;6.25;3.50
72509;PMS5003;60532;56.114;40.350;2023-07-22T06:10:36;5.00;5.00;3.00
72509;PMS5003;60532;56.114;40.350;2023-07-22T06:12:38;6.80;5.40;2.40
72509;PMS5003;60532;56.114;40.350;2023-07-22T06:14:38;8.00;6.80;3.20
72509;PMS5003;60532;56.114;40.350;2023-07-22T06:16:39;5.50;5.00;3.00
72509;PMS5003;60532;56.114;40.350;2023-07-22T06:18:39;8.00;6.25;3.00
72509;PMS5003;60532;56.114;40.350;2023-07-22T06:20:40;7.67;7.67;4.00
72509;PMS5003;60532;56.114;40.350;2023-07-22T06:22:40;6.00;6.00;4.25
72509;PMS5003;60532;56.114;40.350;2023-07-22T06:24:41;5.75;5.50;4.00
72509;PMS5003;60532;56.114;40.350;2023-07-22T06:26:41;9.75;7.50;4.25
72509;PMS5003;60532;56.114;40.350;2023-07-22T06:28:42;6.75;6.75;3.50
72509;PMS5003;60532;56.114;40.350;2023-07-22T06:30:42;5.00;4.00;2.75
72509;PMS5003;60532;56.114;40.350;2023-07-22T06:32:43;4.50;4.50;2.75
72509;PMS5003;60532;56.114;40.350;2023-07-22T06:34:43;4.00;4.00;3.00
72509;PMS5003;60532;56.114;40.350;2023-07-22T06:36:43;4.00;4.00;2.00
72509;PMS5003;60532;56.114;40.350;2023-07-22T06:38:44;6.50;6.00;3.75
72509;PMS5003;60532;56.114;40.350;2023-07-22T06:40:44;4.50;4.50;3.00
72509;PMS5003;60532;56.114;40.350;2023-07-22T06:42:46;6.50;6.50;3.75
72509;PMS5003;60532;56.114;40.350;2023-07-22T06:44:46;4.00;4.00;2.00
72509;PMS5003;60532;56.114;40.350;2023-07-22T06:46:47;9.25;5.00;2.75
72509;PMS5003;60532;56.114;40.350;2023-07-22T06:48:47;4.50;4.50;3.00
72509;PMS5003;60532;56.114;40.350;2023-07-22T06:50:48;6.75;6.25;3.00
72509;PMS5003;60532;56.114;40.350;2023-07-22T06:52:48;5.20;5.20;3.00
72509;PMS5003;60532;56.114;40.350;2023-07-22T06:54:49;6.50;6.50;4.00
72509;PMS5003;60532;56.114;40.350;2023-07-22T06:56:50;5.00;4.33;2.67
72509;PMS5003;60532;56.114;40.350;2023-07-22T06:58:50;5.00;5.00;3.00
72509;PMS5003;60532;56.114;40.350;2023-07-22T07:00:54;5.50;5.50;3.00
72509;PMS5003;60532;56.114;40.350;2023-07-22T07:02:56;7.25;4.00;2.00
72509;PMS5003;60532;56.114;40.350;2023-07-22T07:04:56;5.00;4.00;2.33
72509;PMS5003;60532;56.114;40.350;2023-07-22T07:06:57;4.33;4.33;3.00
72509;PMS5003;60532;56.114;40.350;2023-07-22T07:09:00;6.00;5.67;3.33
72509;PMS5003;60532;56.114;40.350;2023-07-22T07:11:01;5.00;5.00;3.00
72509;PMS5003;60532;56.114;40.350;2023-07-22T07:13:02;4.33;4.33;3.00
72509;PMS5003;60532;56.114;40.350;2023-07-22T07:15:02;3.33;3.33;2.00
72509;PMS5003;60532;56.114;40.350;2023-07-22T07:17:03;5.33;2.33;1.00
72509;PMS5003;60532;56.114;40.350;2023-07-22T07:19:04;5.00;5.00;3.00
72509;PMS5003;60532;56.114;40.350;2023-07-22T07:21:04;7.00;5.00;3.67
72509;PMS5003;60532;56.114;40.350;2023-07-22T07:23:04;6.00;6.00;3.00
72509;PMS5003;60532;56.114;40.350;2023-07-22T07:25:05;5.00;4.00;2.33
72509;PMS5003;60532;56.114;40.350;2023-07-22T07:27:06;4.75;4.75;3.00
72509;PMS5003;60532;56.114;40.350;2023-07-22T07:29:06;5.33;5.00;3.33
72509;PMS5003;60532;56.114;40.350;2023-07-22T07:31:07;4.00;4.00;2.67
72509;PMS5003;60532;56.114;40.350;2023-07-22T07:33:07;7.67;4.00;2.00
72509;PMS5003;60532;56.114;40.350;2023-07-22T07:35:08;5.67;4.33;3.00
72509;PMS5003;60532;56.114;40.350;2023-07-22T07:37:08;3.33;3.00;2.00
72509;PMS5003;60532;56.114;40.350;2023-07-22T07:39:09;5.67;3.00;1.00
72509;PMS5003;60532;56.114;40.350;2023-07-22T07:41:09;5.33;4.33;3.33
72509;PMS5003;60532;56.114;40.350;2023-07-22T07:43:11;5.00;5.00;3.00
72509;PMS5003;60532;56.114;40.350;2023-07-22T07:45:12;5.67;3.00;2.00
72509;PMS5003;60532;56.114;40.350;2023-07-22T07:47:13;5.00;4.00;2.25
72509;PMS5003;60532;56.114;40.350;2023-07-22T07:49:14;4.00;2.00;1.00
72509;PMS5003;60532;56.114;40.350;2023-07-22T07:51:16;5.00;5.00;3.00
72509;PMS5003;60532;56.114;40.350;2023-07-22T07:53:16;3.75;3.75;3.00
72509;PMS5003;60532;56.114;40.350;2023-07-22T07:55:17;5.67;4.33;3.00
72509;PMS5003;60532;56.114;40.350;2023-07-22T07:57:18;3.33;3.33;2.67
72509;PMS5003;60532;56.114;40.350;2023-07-22T07:59:18;5.67;3.33;1.67
72509;PMS5003;60532;56.114;40.350;2023-07-22T08:01:19;6.67;5.00;2.00
72509;PMS5003;60532;56.114;40.350;2023-07-22T08:03:21;3.00;3.00;1.00
72509;PMS5003;60532;56.114;40.350;2023-07-22T08:05:21;5.00;3.00;2.00
72509;PMS5003;60532;56.114;40.350;2023-07-22T08:07:22;3.67;3.67;2.00
72509;PMS5003;60532;56.114;40.350;2023-07-22T08:09:23;6.00;5.00;2.00
72509;PMS5003;60532;56.114;40.350;2023-07-22T08:11:23;4.00;4.00;2.00
72509;PMS5003;60532;56.114;40.350;2023-07-22T08:13:24;4.00;4.00;2.67
72509;PMS5003;60532;56.114;40.350;2023-07-22T08:15:24;3.67;3.67;2.00
72509;PMS5003;60532;56.114;40.350;2023-07-22T08:17:25;3.00;3.00;2.00
72509;PMS5003;60532;56.114;40.350;2023-07-22T08:19:25;4.67;4.67;2.00
72509;PMS5003;60532;56.114;40.350;2023-07-22T08:21:26;6.00;3.67;2.00
72509;PMS5003;60532;56.114;40.350;2023-07-22T08:23:26;5.33;3.00;1.33
72509;PMS5003;60532;56.114;40.350;2023-07-22T08:25:26;3.00;2.00;1.33
72509;PMS5003;60532;56.114;40.350;2023-07-22T08:27:27;6.00;3.00;2.00
72509;PMS5003;60532;56.114;40.350;2023-07-22T08:29:28;2.00;2.00;1.00
72509;PMS5003;60532;56.114;40.350;2023-07-22T08:31:28;3.00;3.00;2.00
72509;PMS5003;60532;56.114;40.350;2023-07-22T08:33:29;3.00;3.00;2.00
72509;PMS5003;60532;56.114;40.350;2023-07-22T08:35:29;3.25;2.75;1.25
72509;PMS5003;60532;56.114;40.350;2023-07-22T08:37:30;4.00;4.00;2.00
72509;PMS5003;60532;56.114;40.350;2023-07-22T08:39:31;2.25;2.25;2.00
72509;PMS5003;60532;56.114;40.350;2023-07-22T08:41:32;1.75;1.75;1.25
72509;PMS5003;60532;56.114;40.350;2023-07-22T08:43:33;3.00;3.00;2.00
72509;PMS5003;60532;56.114;40.350;2023-07-22T08:45:35;2.50;2.50;1.00
72509;PMS5003;60532;56.114;40.350;2023-07-22T08:47:44;2.00;2.00;1.75
72509;PMS5003;60532;56.114;40.350;2023-07-22T08:49:46;3.00;3.00;1.75
72509;PMS5003;60532;56.114;40.350;2023-07-22T08:51:50;1.50;1.50;1.00
72509;PMS5003;60532;56.114;40.350;2023-07-22T08:53:51;3.33;3.00;1.67
72509;PMS5003;60532;56.114;40.350;2023-07-22T08:55:53;5.75;3.50;1.75
72509;PMS5003;60532;56.114;40.350;2023-07-22T08:57:54;3.75;3.50;2.00
72509;PMS5003;60532;56.114;40.350;2023-07-22T08:59:56;4.25;3.00;2.00
72509;PMS5003;60532;56.114;40.350;2023-07-22T09:01:57;4.00;3.75;2.00
72509;PMS5003;60532;56.114;40.350;2023-07-22T09:03:58;4.67;2.33;1.00
72509;PMS5003;60532;56.114;40.350;2023-07-22T09:05:58;5.00;4.67;2.67
72509;PMS5003;60532;56.114;40.350;2023-07-22T09:08:01;3.50;2.00;2.00
72509;PMS5003;60532;56.114;40.350;2023-07-22T09:10:02;3.25;2.25;1.50
72509;PMS5003;60532;56.114;40.350;2023-07-22T09:12:03;3.25;3.00;1.75
72509;PMS5003;60532;56.114;40.350;2023-07-22T09:14:05;3.25;3.25;2.00
72509;PMS5003;60532;56.114;40.350;2023-07-22T09:16:06;9.00;9.00;6.33
72509;PMS5003;60532;56.114;40.350;2023-07-22T09:18:06;7.00;6.00;4.00
72509;PMS5003;60532;56.114;40.350;2023-07-22T09:20:08;7.75;7.75;5.00
72509;PMS5003;60532;56.114;40.350;2023-07-22T09:22:08;11.33;9.00;6.00
72509;PMS5003;60532;56.114;40.350;2023-07-22T09:24:19;12.33;12.00;9.00
72509;PMS5003;60532;56.114;40.350;2023-07-22T09:26:20;31.50;28.50;20.75
72509;PMS5003;60532;56.114;40.350;2023-07-22T09:28:21;24.00;22.25;16.25
72509;PMS5003;60532;56.114;40.350;2023-07-22T09:30:25;27.67;27.00;20.00
72509;PMS5003;60532;56.114;40.350;2023-07-22T09:32:34;38.40;35.40;24.00
72509;PMS5003;60532;56.114;40.350;2023-07-22T09:34:35;45.60;39.60;28.80
72509;PMS5003;60532;56.114;40.350;2023-07-22T09:37:09;45.75;36.50;25.50
72509;PMS5003;60532;56.114;40.350;2023-07-22T09:39:03;85.80;84.80;63.60
72509;PMS5003;60532;56.114;40.350;2023-07-22T09:41:04;83.50;81.00;62.50
72509;PMS5003;60532;56.114;40.350;2023-07-22T09:43:05;115.75;110.75;83.75
72509;PMS5003;60532;56.114;40.350;2023-07-22T09:45:06;143.60;142.00;107.80
72509;PMS5003;60532;56.114;40.350;2023-07-22T09:47:07;95.25;93.00;71.00
72509;PMS5003;60532;56.114;40.350;2023-07-22T09:49:11;74.60;67.20;50.60
72509;PMS5003;60532;56.114;40.350;2023-07-22T09:51:13;50.60;42.80;30.40
72509;PMS5003;60532;56.114;40.350;2023-07-22T09:53:14;50.80;43.60;29.80
72509;PMS5003;60532;56.114;40.350;2023-07-22T09:55:16;75.80;65.20;50.40
72509;PMS5003;60532;56.114;40.350;2023-07-22T09:57:19;51.40;42.80;29.20
72509;PMS5003;60532;56.114;40.350;2023-07-22T09:59:21;39.20;33.60;23.60
72509;PMS5003;60532;56.114;40.350;2023-07-22T10:01:24;25.25;23.25;16.50
72509;PMS5003;60532;56.114;40.350;2023-07-22T10:03:26;14.75;14.75;11.25
72509;PMS5003;60532;56.114;40.350;2023-07-22T10:05:28;8.50;8.50;6.25
72509;PMS5003;60532;56.114;40.350;2023-07-22T10:07:30;9.67;6.67;5.00
72509;PMS5003;60532;56.114;40.350;2023-07-22T10:09:33;6.00;4.75;2.75
72509;PMS5003;60532;56.114;40.350;2023-07-22T10:11:35;7.25;4.75;3.00
72509;PMS5003;60532;56.114;40.350;2023-07-22T10:13:36;3.00;3.00;2.00
72509;PMS5003;60532;56.114;40.350;2023-07-22T10:15:37;4.00;4.00;2.00
72509;PMS5003;60532;56.114;40.350;2023-07-22T10:17:41;6.33;4.33;3.00
72509;PMS5003;60532;56.114;40.350;2023-07-22T10:19:42;5.25;4.00;2.00
72509;PMS5003;60532;56.114;40.350;2023-07-22T10:21:42;3.33;2.00;1.00
72509;PMS5003;60532;56.114;40.350;2023-07-22T10:23:43;4.00;2.00;1.00
72509;PMS5003;60532;56.114;40.350;2023-07-22T10:25:45;3.75;3.00;1.50
72509;PMS5003;60532;56.114;40.350;2023-07-22T10:27:47;3.75;3.75;1.00
72509;PMS5003;60532;56.114;40.350;2023-07-22T10:29:48;3.00;3.00;1.00
72509;PMS5003;60532;56.114;40.350;2023-07-22T10:31:48;3.00;3.00;1.67
72509;PMS5003;60532;56.114;40.350;2023-07-22T10:33:53;2.25;2.25;1.50
72509;PMS5003;60532;56.114;40.350;2023-07-22T10:36:07;5.33;2.67;1.00
72509;PMS5003;60532;56.114;40.350;2023-07-22T10:38:14;3.00;3.00;2.00
72509;PMS5003;60532;56.114;40.350;2023-07-22T10:42:23;1.00;1.00;0.00
72509;PMS5003;60532;56.114;40.350;2023-07-22T10:44:25;5.00;3.00;2.00
72509;PMS5003;60532;56.114;40.350;2023-07-22T10:46:35;3.50;2.75;1.75
72509;PMS5003;60532;56.114;40.350;2023-07-22T10:48:40;3.50;3.00;1.75
72509;PMS5003;60532;56.114;40.350;2023-07-22T10:50:43;3.25;3.25;1.75
72509;PMS5003;60532;56.114;40.350;2023-07-22T10:52:44;3.50;2.00;1.00
72509;PMS5003;60532;56.114;40.350;2023-07-22T10:54:44;3.00;3.00;1.75
72509;PMS5003;60532;56.114;40.350;2023-07-22T10:56:45;5.67;3.00;1.00
72509;PMS5003;60532;56.114;40.350;2023-07-22T11:00:47;3.67;2.00;1.00
72509;PMS5003;60532;56.114;40.350;2023-07-22T11:03:08;6.00;3.67;2.00
72509;PMS5003;60532;56.114;40.350;2023-07-22T11:05:11;6.75;3.50;2.00
72509;PMS5003;60532;56.114;40.350;2023-07-22T11:07:11;3.00;3.00;2.00
72509;PMS5003;60532;56.114;40.350;2023-07-22T11:11:44;3.75;3.00;1.00
72509;PMS5003;60532;56.114;40.350;2023-07-22T11:13:45;4.00;2.25;1.00
72509;PMS5003;60532;56.114;40.350;2023-07-22T11:15:48;3.00;2.00;2.00
72509;PMS5003;60532;56.114;40.350;2023-07-22T11:17:48;2.00;2.00;0.25
72509;PMS5003;60532;56.114;40.350;2023-07-22T11:19:49;0.33;0.33;0.00
72509;PMS5003;60532;56.114;40.350;2023-07-22T11:21:50;3.00;3.00;1.00
72509;PMS5003;60532;56.114;40.350;2023-07-22T11:23:51;1.75;1.75;1.00
72509;PMS5003;60532;56.114;40.350;2023-07-22T11:25:51;1.00;1.00;1.00
72509;PMS5003;60532;56.114;40.350;2023-07-22T11:27:52;2.67;2.67;2.00
72509;PMS5003;60532;56.114;40.350;2023-07-22T11:29:53;4.00;4.00;2.00
72509;PMS5003;60532;56.114;40.350;2023-07-22T11:31:57;4.00;2.00;1.00
72509;PMS5003;60532;56.114;40.350;2023-07-22T11:33:58;2.00;2.00;2.00
72509;PMS5003;60532;56.114;40.350;2023-07-22T11:35:58;3.00;2.00;1.00
72509;PMS5003;60532;56.114;40.350;2023-07-22T11:38:05;3.67;3.67;2.00
72509;PMS5003;60532;56.114;40.350;2023-07-22T11:40:06;2.00;2.00;2.00
72509;PMS5003;60532;56.114;40.350;2023-07-22T11:42:08;5.00;3.00;2.00
72509;PMS5003;60532;56.114;40.350;2023-07-22T11:44:09;4.00;2.00;1.00
72509;PMS5003;60532;56.114;40.350;2023-07-22T11:46:10;3.75;3.75;1.00